sensor_id;sensor_type;location;lat;lon;timestamp;P1;durP1;ratioP1;P2;durP2;ratioP2
9536;SDS011;4807;48.024;11.726;2023-02-14T00:03:04;26.07;;;13.23;;
9536;SDS011;4807;48.024;11.726;2023-02-14T00:06:12;26.27;;;10.60;;
9536;SDS011;4807;48.024;11.726;2023-02-14T00:09:21;15.13;;;10.60;;
9536;SDS011;4807;48.024;11.726;2023-02-14T00:12:31;20.20;;;11.13;;
9536;SDS011;4807;48.024;11.726;2023-02-14T00:15:39;20.23;;;10.20;;
9536;SDS011;4807;48.024;11.726;2023-02-14T00:18:46;14.20;;;10.17;;
9536;SDS011;4807;48.024;11.726;2023-02-14T00:22:10;16.20;;;11.30;;
9536;SDS011;4807;48.024;11.726;2023-02-14T00:25:19;23.10;;;11.10;;
9536;SDS011;4807;48.024;11.726;2023-02-14T00:28:28;17.17;;;10.87;;
9536;SDS011;4807;48.024;11.726;2023-02-14T00:31:36;16.83;;;11.03;;
9536;SDS011;4807;48.024;11.726;2023-02-14T00:34:46;24.33;;;11.47;;
9536;SDS011;4807;48.024;11.726;2023-02-14T00:37:54;17.83;;;11.40;;
9536;SDS011;4807;48.024;11.726;2023-02-14T00:41:03;17.73;;;11.60;;
9536;SDS011;4807;48.024;11.726;2023-02-14T00:44:13;14.20;;;10.00;;
9536;SDS011;4807;48.024;11.726;2023-02-14T00:47:21;13.90;;;10.33;;
9536;SDS011;4807;48.024;11.726;2023-02-14T00:50:30;29.53;;;11.17;;
9536;SDS011;4807;48.024;11.726;2023-02-14T00:53:38;12.30;;;9.10;;
9536;SDS011;4807;48.024;11.726;2023-02-14T00:56:47;12.13;;;9.43;;
9536;SDS011;4807;48.024;11.726;2023-02-14T00:59:57;17.07;;;10.90;;
9536;SDS011;4807;48.024;11.726;2023-02-14T01:03:05;28.27;;;10.23;;
9536;SDS011;4807;48.024;11.726;2023-02-14T01:06:13;14.20;;;10.13;;
9536;SDS011;4807;48.024;11.726;2023-02-14T01:09:22;13.53;;;10.13;;
9536;SDS011;4807;48.024;11.726;2023-02-14T01:12:30;13.73;;;9.83;;
9536;SDS011;4807;48.024;11.726;2023-02-14T01:15:41;47.53;;;11.73;;
9536;SDS011;4807;48.024;11.726;2023-02-14T01:18:52;14.50;;;10.27;;
9536;SDS011;4807;48.024;11.726;2023-02-14T01:22:01;12.87;;;9.47;;
9536;SDS011;4807;48.024;11.726;2023-02-14T01:25:09;13.13;;;9.70;;
9536;SDS011;4807;48.024;11.726;2023-02-14T01:28:18;14.03;;;10.23;;
9536;SDS011;4807;48.024;11.726;2023-02-14T01:31:28;13.80;;;9.77;;
9536;SDS011;4807;48.024;11.726;2023-02-14T01:34:40;14.37;;;10.20;;
9536;SDS011;4807;48.024;11.726;2023-02-14T01:37:49;11.77;;;9.10;;
9536;SDS011;4807;48.024;11.726;2023-02-14T01:40:58;16.47;;;11.27;;
9536;SDS011;4807;48.024;11.726;2023-02-14T01:44:49;27.87;;;10.10;;
9536;SDS011;4807;48.024;11.726;2023-02-14T01:48:11;27.30;;;9.60;;
9536;SDS011;4807;48.024;11.726;2023-02-14T01:51:21;15.23;;;10.53;;
9536;SDS011;4807;48.024;11.726;2023-02-14T01:54:32;13.73;;;9.23;;
9536;SDS011;4807;48.024;11.726;2023-02-14T01:57:49;18.20;;;10.63;;
9536;SDS011;4807;48.024;11.726;2023-02-14T02:01:02;15.67;;;10.53;;
9536;SDS011;4807;48.024;11.726;2023-02-14T02:04:13;13.77;;;10.00;;
9536;SDS011;4807;48.024;11.726;2023-02-14T02:07:28;14.47;;;9.87;;
9536;SDS011;4807;48.024;11.726;2023-02-14T02:10:37;40.33;;;11.17;;
9536;SDS011;4807;48.024;11.726;2023-02-14T02:13:46;13.10;;;9.70;;
9536;SDS011;4807;48.024;11.726;2023-02-14T02:17:06;16.73;;;10.70;;
9536;SDS011;4807;48.024;11.726;2023-02-14T02:20:49;14.00;;;9.37;;
9536;SDS011;4807;48.024;11.726;2023-02-14T02:24:38;12.73;;;9.43;;
9536;SDS011;4807;48.024;11.726;2023-02-14T02:28:03;14.53;;;10.33;;
9536;SDS011;4807;48.024;11.726;2023-02-14T02:31:48;17.33;;;10.13;;
9536;SDS011;4807;48.024;11.726;2023-02-14T02:35:32;14.47;;;9.70;;
9536;SDS011;4807;48.024;11.726;2023-02-14T02:39:02;12.93;;;9.77;;
9536;SDS011;4807;48.024;11.726;2023-02-14T02:42:27;14.37;;;9.80;;
9536;SDS011;4807;48.024;11.726;2023-02-14T02:45:50;13.13;;;9.77;;
9536;SDS011;4807;48.024;11.726;2023-02-14T02:49:31;13.63;;;9.87;;
9536;SDS011;4807;48.024;11.726;2023-02-14T02:53:13;14.30;;;9.23;;
9536;SDS011;4807;48.024;11.726;2023-02-14T02:56:31;14.33;;;10.37;;
9536;SDS011;4807;48.024;11.726;2023-02-14T02:59:56;25.97;;;11.83;;
9536;SDS011;4807;48.024;11.726;2023-02-14T03:03:08;14.63;;;10.53;;
9536;SDS011;4807;48.024;11.726;2023-02-14T03:06:37;14.30;;;10.57;;
9536;SDS011;4807;48.024;11.726;2023-02-14T03:09:50;16.10;;;10.93;;
9536;SDS011;4807;48.024;11.726;2023-02-14T03:13:24;16.10;;;10.47;;
9536;SDS011;4807;48.024;11.726;2023-02-14T03:16:58;15.67;;;9.63;;
9536;SDS011;4807;48.024;11.726;2023-02-14T03:20:21;31.67;;;10.67;;
9536;SDS011;4807;48.024;11.726;2023-02-14T03:23:40;18.73;;;11.07;;
9536;SDS011;4807;48.024;11.726;2023-02-14T03:27:03;15.87;;;10.73;;
9536;SDS011;4807;48.024;11.726;2023-02-14T03:30:23;14.67;;;10.23;;
9536;SDS011;4807;48.024;11.726;2023-02-14T03:33:50;14.93;;;9.50;;
9536;SDS011;4807;48.024;11.726;2023-02-14T03:37:09;16.77;;;10.43;;
9536;SDS011;4807;48.024;11.726;2023-02-14T03:40:24;14.57;;;10.13;;
9536;SDS011;4807;48.024;11.726;2023-02-14T03:43:40;15.00;;;10.40;;
9536;SDS011;4807;48.024;11.726;2023-02-14T03:46:55;14.50;;;10.13;;
9536;SDS011;4807;48.024;11.726;2023-02-14T03:50:13;15.03;;;10.63;;
9536;SDS011;4807;48.024;11.726;2023-02-14T03:53:26;14.83;;;9.47;;
9536;SDS011;4807;48.024;11.726;2023-02-14T03:56:39;15.77;;;10.87;;
9536;SDS011;4807;48.024;11.726;2023-02-14T03:59:54;26.53;;;10.83;;
9536;SDS011;4807;48.024;11.726;2023-02-14T04:03:04;15.90;;;10.63;;
9536;SDS011;4807;48.024;11.726;2023-02-14T04:06:18;15.13;;;10.63;;
9536;SDS011;4807;48.024;11.726;2023-02-14T04:09:27;17.13;;;11.13;;
9536;SDS011;4807;48.024;11.726;2023-02-14T04:12:35;17.13;;;10.93;;
9536;SDS011;4807;48.024;11.726;2023-02-14T04:15:45;16.87;;;10.73;;
9536;SDS011;4807;48.024;11.726;2023-02-14T04:18:54;15.87;;;10.47;;
9536;SDS011;4807;48.024;11.726;2023-02-14T04:22:20;15.27;;;10.03;;
9536;SDS011;4807;48.024;11.726;2023-02-14T04:25:31;16.50;;;10.40;;
9536;SDS011;4807;48.024;11.726;2023-02-14T04:28:51;15.90;;;10.57;;
9536;SDS011;4807;48.024;11.726;2023-02-14T04:32:01;17.00;;;11.47;;
9536;SDS011;4807;48.024;11.726;2023-02-14T04:35:09;14.30;;;10.17;;
9536;SDS011;4807;48.024;11.726;2023-02-14T04:38:18;13.57;;;9.90;;
9536;SDS011;4807;48.024;11.726;2023-02-14T04:41:27;15.23;;;10.00;;
9536;SDS011;4807;48.024;11.726;2023-02-14T04:44:36;19.43;;;12.67;;
9536;SDS011;4807;48.024;11.726;2023-02-14T04:47:46;14.00;;;9.50;;
9536;SDS011;4807;48.024;11.726;2023-02-14T04:50:55;16.30;;;10.40;;
9536;SDS011;4807;48.024;11.726;2023-02-14T04:54:03;15.90;;;10.30;;
9536;SDS011;4807;48.024;11.726;2023-02-14T04:57:12;20.40;;;11.17;;
9536;SDS011;4807;48.024;11.726;2023-02-14T05:00:20;17.03;;;10.97;;
9536;SDS011;4807;48.024;11.726;2023-02-14T05:03:30;49.60;;;12.87;;
9536;SDS011;4807;48.024;11.726;2023-02-14T05:06:39;19.17;;;13.13;;
9536;SDS011;4807;48.024;11.726;2023-02-14T05:09:47;14.77;;;11.10;;
9536;SDS011;4807;48.024;11.726;2023-02-14T05:12:56;18.47;;;12.23;;
9536;SDS011;4807;48.024;11.726;2023-02-14T05:16:04;15.30;;;10.67;;
9536;SDS011;4807;48.024;11.726;2023-02-14T05:19:16;16.50;;;10.53;;
9536;SDS011;4807;48.024;11.726;2023-02-14T05:22:25;16.87;;;10.00;;
9536;SDS011;4807;48.024;11.726;2023-02-14T05:25:33;24.17;;;10.70;;
9536;SDS011;4807;48.024;11.726;2023-02-14T05:28:41;14.07;;;9.77;;
9536;SDS011;4807;48.024;11.726;2023-02-14T05:31:50;17.90;;;10.73;;
9536;SDS011;4807;48.024;11.726;2023-02-14T05:34:59;16.43;;;11.20;;
9536;SDS011;4807;48.024;11.726;2023-02-14T05:38:11;15.27;;;10.17;;
9536;SDS011;4807;48.024;11.726;2023-02-14T05:41:19;14.50;;;10.20;;
9536;SDS011;4807;48.024;11.726;2023-02-14T05:44:27;15.03;;;9.87;;
9536;SDS011;4807;48.024;11.726;2023-02-14T05:47:35;18.87;;;10.30;;
9536;SDS011;4807;48.024;11.726;2023-02-14T05:50:46;16.03;;;10.17;;
9536;SDS011;4807;48.024;11.726;2023-02-14T05:53:54;16.77;;;10.93;;
9536;SDS011;4807;48.024;11.726;2023-02-14T05:57:05;18.93;;;11.80;;
9536;SDS011;4807;48.024;11.726;2023-02-14T06:00:42;14.57;;;9.47;;
9536;SDS011;4807;48.024;11.726;2023-02-14T06:03:50;14.50;;;10.10;;
9536;SDS011;4807;48.024;11.726;2023-02-14T06:07:00;15.83;;;10.10;;
9536;SDS011;4807;48.024;11.726;2023-02-14T06:10:09;26.10;;;10.87;;
9536;SDS011;4807;48.024;11.726;2023-02-14T06:13:18;16.07;;;9.53;;
9536;SDS011;4807;48.024;11.726;2023-02-14T06:16:26;15.30;;;9.70;;
9536;SDS011;4807;48.024;11.726;2023-02-14T06:19:34;15.40;;;9.63;;
9536;SDS011;4807;48.024;11.726;2023-02-14T06:22:44;17.53;;;10.20;;
9536;SDS011;4807;48.024;11.726;2023-02-14T06:25:53;16.40;;;10.70;;
9536;SDS011;4807;48.024;11.726;2023-02-14T06:29:01;17.20;;;10.87;;
9536;SDS011;4807;48.024;11.726;2023-02-14T06:32:11;16.73;;;10.80;;
9536;SDS011;4807;48.024;11.726;2023-02-14T06:35:19;18.37;;;11.03;;
9536;SDS011;4807;48.024;11.726;2023-02-14T06:38:29;21.03;;;11.30;;
9536;SDS011;4807;48.024;11.726;2023-02-14T06:41:37;17.43;;;10.30;;
9536;SDS011;4807;48.024;11.726;2023-02-14T06:44:46;13.73;;;9.53;;
9536;SDS011;4807;48.024;11.726;2023-02-14T06:47:54;13.10;;;9.63;;
9536;SDS011;4807;48.024;11.726;2023-02-14T06:51:02;14.10;;;9.53;;
9536;SDS011;4807;48.024;11.726;2023-02-14T06:54:12;16.23;;;9.67;;
9536;SDS011;4807;48.024;11.726;2023-02-14T06:57:20;22.03;;;11.00;;
9536;SDS011;4807;48.024;11.726;2023-02-14T07:00:28;16.20;;;9.87;;
9536;SDS011;4807;48.024;11.726;2023-02-14T07:03:37;14.87;;;9.30;;
9536;SDS011;4807;48.024;11.726;2023-02-14T07:06:45;17.93;;;10.63;;
9536;SDS011;4807;48.024;11.726;2023-02-14T07:09:54;14.67;;;9.67;;
9536;SDS011;4807;48.024;11.726;2023-02-14T07:13:02;18.63;;;10.53;;
9536;SDS011;4807;48.024;11.726;2023-02-14T07:16:11;17.33;;;10.80;;
9536;SDS011;4807;48.024;11.726;2023-02-14T07:19:20;16.93;;;10.10;;
9536;SDS011;4807;48.024;11.726;2023-02-14T07:22:34;15.97;;;11.07;;
9536;SDS011;4807;48.024;11.726;2023-02-14T07:25:44;17.67;;;11.03;;
9536;SDS011;4807;48.024;11.726;2023-02-14T07:28:53;15.80;;;11.27;;
9536;SDS011;4807;48.024;11.726;2023-02-14T07:32:01;14.80;;;10.10;;
9536;SDS011;4807;48.024;11.726;2023-02-14T07:35:10;13.70;;;9.20;;
9536;SDS011;4807;48.024;11.726;2023-02-14T07:38:20;18.57;;;8.93;;
9536;SDS011;4807;48.024;11.726;2023-02-14T07:41:31;13.97;;;9.53;;
9536;SDS011;4807;48.024;11.726;2023-02-14T07:44:39;11.67;;;7.67;;
9536;SDS011;4807;48.024;11.726;2023-02-14T07:47:47;15.00;;;9.17;;
9536;SDS011;4807;48.024;11.726;2023-02-14T07:50:56;12.80;;;8.93;;
9536;SDS011;4807;48.024;11.726;2023-02-14T07:54:05;12.67;;;7.73;;
9536;SDS011;4807;48.024;11.726;2023-02-14T07:57:15;14.37;;;9.63;;
9536;SDS011;4807;48.024;11.726;2023-02-14T08:00:23;16.40;;;9.07;;
9536;SDS011;4807;48.024;11.726;2023-02-14T08:03:31;13.70;;;9.27;;
9536;SDS011;4807;48.024;11.726;2023-02-14T08:06:40;12.30;;;8.53;;
9536;SDS011;4807;48.024;11.726;2023-02-14T08:09:48;14.33;;;8.83;;
9536;SDS011;4807;48.024;11.726;2023-02-14T08:12:58;13.10;;;8.73;;
9536;SDS011;4807;48.024;11.726;2023-02-14T08:16:07;20.50;;;8.63;;
9536;SDS011;4807;48.024;11.726;2023-02-14T08:19:18;14.40;;;10.07;;
9536;SDS011;4807;48.024;11.726;2023-02-14T08:22:30;13.33;;;9.30;;
9536;SDS011;4807;48.024;11.726;2023-02-14T08:25:38;13.83;;;7.87;;
9536;SDS011;4807;48.024;11.726;2023-02-14T08:28:48;12.57;;;8.00;;
9536;SDS011;4807;48.024;11.726;2023-02-14T08:31:56;13.57;;;8.23;;
9536;SDS011;4807;48.024;11.726;2023-02-14T08:35:06;12.70;;;8.23;;
9536;SDS011;4807;48.024;11.726;2023-02-14T08:38:16;12.47;;;9.07;;
9536;SDS011;4807;48.024;11.726;2023-02-14T08:41:24;13.10;;;8.93;;
9536;SDS011;4807;48.024;11.726;2023-02-14T08:44:34;13.40;;;9.47;;
9536;SDS011;4807;48.024;11.726;2023-02-14T08:47:42;12.73;;;8.60;;
9536;SDS011;4807;48.024;11.726;2023-02-14T08:50:50;14.03;;;8.70;;
9536;SDS011;4807;48.024;11.726;2023-02-14T08:53:58;12.07;;;7.60;;
9536;SDS011;4807;48.024;11.726;2023-02-14T08:57:08;11.20;;;8.17;;
9536;SDS011;4807;48.024;11.726;2023-02-14T09:00:18;13.27;;;8.17;;
9536;SDS011;4807;48.024;11.726;2023-02-14T09:03:28;9.80;;;7.00;;
9536;SDS011;4807;48.024;11.726;2023-02-14T09:06:36;11.93;;;8.27;;
9536;SDS011;4807;48.024;11.726;2023-02-14T09:09:46;12.17;;;7.70;;
9536;SDS011;4807;48.024;11.726;2023-02-14T09:12:54;11.10;;;7.50;;
9536;SDS011;4807;48.024;11.726;2023-02-14T09:16:04;11.03;;;7.37;;
9536;SDS011;4807;48.024;11.726;2023-02-14T09:19:14;11.60;;;7.27;;
9536;SDS011;4807;48.024;11.726;2023-02-14T09:22:23;11.03;;;8.00;;
9536;SDS011;4807;48.024;11.726;2023-02-14T09:25:31;9.77;;;7.30;;
9536;SDS011;4807;48.024;11.726;2023-02-14T09:28:39;9.90;;;7.20;;
9536;SDS011;4807;48.024;11.726;2023-02-14T09:31:50;13.33;;;7.77;;
9536;SDS011;4807;48.024;11.726;2023-02-14T09:34:59;12.30;;;8.57;;
9536;SDS011;4807;48.024;11.726;2023-02-14T09:38:08;12.87;;;8.70;;
9536;SDS011;4807;48.024;11.726;2023-02-14T09:45:17;11.17;;;8.03;;
9536;SDS011;4807;48.024;11.726;2023-02-14T09:48:34;10.07;;;7.57;;
9536;SDS011;4807;48.024;11.726;2023-02-14T09:51:48;12.40;;;8.70;;
9536;SDS011;4807;48.024;11.726;2023-02-14T09:55:00;11.03;;;8.77;;
9536;SDS011;4807;48.024;11.726;2023-02-14T09:58:12;13.20;;;8.87;;
9536;SDS011;4807;48.024;11.726;2023-02-14T10:01:28;12.93;;;8.77;;
9536;SDS011;4807;48.024;11.726;2023-02-14T10:04:49;15.37;;;8.93;;
9536;SDS011;4807;48.024;11.726;2023-02-14T10:08:17;12.57;;;8.20;;
9536;SDS011;4807;48.024;11.726;2023-02-14T10:11:44;14.70;;;9.10;;
9536;SDS011;4807;48.024;11.726;2023-02-14T10:14:54;15.67;;;8.93;;
9536;SDS011;4807;48.024;11.726;2023-02-14T10:18:09;16.20;;;9.33;;
9536;SDS011;4807;48.024;11.726;2023-02-14T10:21:27;14.03;;;8.73;;
9536;SDS011;4807;48.024;11.726;2023-02-14T10:24:42;15.67;;;8.93;;
9536;SDS011;4807;48.024;11.726;2023-02-14T10:27:57;13.03;;;9.17;;
9536;SDS011;4807;48.024;11.726;2023-02-14T10:31:17;14.57;;;9.17;;
9536;SDS011;4807;48.024;11.726;2023-02-14T10:34:31;13.23;;;7.80;;
9536;SDS011;4807;48.024;11.726;2023-02-14T10:37:53;15.00;;;9.27;;
9536;SDS011;4807;48.024;11.726;2023-02-14T10:44:49;17.40;;;9.83;;
9536;SDS011;4807;48.024;11.726;2023-02-14T10:48:14;11.70;;;8.37;;
9536;SDS011;4807;48.024;11.726;2023-02-14T10:51:36;11.73;;;8.07;;
9536;SDS011;4807;48.024;11.726;2023-02-14T10:54:54;13.63;;;9.20;;
9536;SDS011;4807;48.024;11.726;2023-02-14T10:58:06;14.80;;;9.33;;
9536;SDS011;4807;48.024;11.726;2023-02-14T11:01:20;11.23;;;8.73;;
9536;SDS011;4807;48.024;11.726;2023-02-14T11:04:30;13.90;;;8.70;;
9536;SDS011;4807;48.024;11.726;2023-02-14T11:07:39;14.87;;;9.67;;
9536;SDS011;4807;48.024;11.726;2023-02-14T11:10:48;12.27;;;9.60;;
9536;SDS011;4807;48.024;11.726;2023-02-14T11:13:56;12.70;;;9.37;;
9536;SDS011;4807;48.024;11.726;2023-02-14T11:17:25;10.77;;;7.93;;
9536;SDS011;4807;48.024;11.726;2023-02-14T11:20:35;11.03;;;8.37;;
9536;SDS011;4807;48.024;11.726;2023-02-14T11:23:45;11.53;;;7.83;;
9536;SDS011;4807;48.024;11.726;2023-02-14T11:26:58;11.53;;;7.80;;
9536;SDS011;4807;48.024;11.726;2023-02-14T11:30:11;12.80;;;8.30;;
9536;SDS011;4807;48.024;11.726;2023-02-14T11:33:31;10.67;;;8.30;;
9536;SDS011;4807;48.024;11.726;2023-02-14T11:36:45;9.67;;;7.30;;
9536;SDS011;4807;48.024;11.726;2023-02-14T11:39:54;8.57;;;6.97;;
9536;SDS011;4807;48.024;11.726;2023-02-14T11:43:18;9.33;;;7.30;;
9536;SDS011;4807;48.024;11.726;2023-02-14T11:46:37;10.13;;;6.73;;
9536;SDS011;4807;48.024;11.726;2023-02-14T11:49:59;9.30;;;6.40;;
9536;SDS011;4807;48.024;11.726;2023-02-14T11:53:11;8.93;;;6.00;;
9536;SDS011;4807;48.024;11.726;2023-02-14T11:56:41;7.50;;;5.97;;
9536;SDS011;4807;48.024;11.726;2023-02-14T12:00:02;6.90;;;6.27;;
9536;SDS011;4807;48.024;11.726;2023-02-14T12:03:21;8.70;;;6.30;;
9536;SDS011;4807;48.024;11.726;2023-02-14T12:06:29;8.83;;;5.90;;
9536;SDS011;4807;48.024;11.726;2023-02-14T12:09:40;10.10;;;6.70;;
9536;SDS011;4807;48.024;11.726;2023-02-14T12:12:50;7.47;;;5.80;;
9536;SDS011;4807;48.024;11.726;2023-02-14T12:16:03;8.70;;;6.60;;
9536;SDS011;4807;48.024;11.726;2023-02-14T12:19:31;8.37;;;5.83;;
9536;SDS011;4807;48.024;11.726;2023-02-14T12:22:49;8.47;;;5.80;;
9536;SDS011;4807;48.024;11.726;2023-02-14T12:26:10;6.53;;;5.70;;
9536;SDS011;4807;48.024;11.726;2023-02-14T12:29:31;7.07;;;5.50;;
9536;SDS011;4807;48.024;11.726;2023-02-14T12:32:46;6.30;;;4.67;;
9536;SDS011;4807;48.024;11.726;2023-02-14T12:35:58;7.17;;;5.47;;
9536;SDS011;4807;48.024;11.726;2023-02-14T12:39:19;6.13;;;5.37;;
9536;SDS011;4807;48.024;11.726;2023-02-14T12:42:43;6.13;;;4.77;;
9536;SDS011;4807;48.024;11.726;2023-02-14T12:46:24;6.73;;;5.43;;
9536;SDS011;4807;48.024;11.726;2023-02-14T12:50:32;6.77;;;4.93;;
9536;SDS011;4807;48.024;11.726;2023-02-14T12:53:58;6.27;;;4.83;;
9536;SDS011;4807;48.024;11.726;2023-02-14T12:57:30;6.60;;;5.17;;
9536;SDS011;4807;48.024;11.726;2023-02-14T13:00:53;6.50;;;4.70;;
9536;SDS011;4807;48.024;11.726;2023-02-14T13:04:38;6.70;;;4.60;;
9536;SDS011;4807;48.024;11.726;2023-02-14T13:08:04;7.17;;;6.43;;
9536;SDS011;4807;48.024;11.726;2023-02-14T13:11:33;15.43;;;7.53;;
9536;SDS011;4807;48.024;11.726;2023-02-14T13:14:52;10.57;;;7.50;;
9536;SDS011;4807;48.024;11.726;2023-02-14T13:18:18;11.60;;;8.03;;
9536;SDS011;4807;48.024;11.726;2023-02-14T13:21:40;10.83;;;7.90;;
9536;SDS011;4807;48.024;11.726;2023-02-14T13:24:54;10.37;;;7.87;;
9536;SDS011;4807;48.024;11.726;2023-02-14T13:28:09;9.97;;;7.33;;
9536;SDS011;4807;48.024;11.726;2023-02-14T13:31:20;13.40;;;8.40;;
9536;SDS011;4807;48.024;11.726;2023-02-14T13:34:29;9.77;;;7.73;;
9536;SDS011;4807;48.024;11.726;2023-02-14T13:37:43;17.03;;;8.63;;
9536;SDS011;4807;48.024;11.726;2023-02-14T13:41:00;10.43;;;7.30;;
9536;SDS011;4807;48.024;11.726;2023-02-14T13:44:11;9.20;;;7.17;;
9536;SDS011;4807;48.024;11.726;2023-02-14T13:47:50;9.93;;;7.40;;
9536;SDS011;4807;48.024;11.726;2023-02-14T13:51:11;12.10;;;6.80;;
9536;SDS011;4807;48.024;11.726;2023-02-14T13:54:20;8.70;;;7.00;;
9536;SDS011;4807;48.024;11.726;2023-02-14T13:57:39;9.63;;;6.77;;
9536;SDS011;4807;48.024;11.726;2023-02-14T14:00:47;8.57;;;5.70;;
9536;SDS011;4807;48.024;11.726;2023-02-14T14:03:57;9.07;;;6.73;;
9536;SDS011;4807;48.024;11.726;2023-02-14T14:07:21;8.17;;;5.87;;
9536;SDS011;4807;48.024;11.726;2023-02-14T14:10:41;7.37;;;6.53;;
9536;SDS011;4807;48.024;11.726;2023-02-14T14:13:59;7.73;;;6.10;;
9536;SDS011;4807;48.024;11.726;2023-02-14T14:17:17;7.93;;;6.27;;
9536;SDS011;4807;48.024;11.726;2023-02-14T14:20:41;6.90;;;6.00;;
9536;SDS011;4807;48.024;11.726;2023-02-14T14:27:31;10.90;;;6.40;;
9536;SDS011;4807;48.024;11.726;2023-02-14T14:30:43;8.33;;;6.20;;
9536;SDS011;4807;48.024;11.726;2023-02-14T14:33:56;9.03;;;6.40;;
9536;SDS011;4807;48.024;11.726;2023-02-14T14:37:07;15.43;;;9.50;;
9536;SDS011;4807;48.024;11.726;2023-02-14T14:40:25;9.47;;;7.10;;
9536;SDS011;4807;48.024;11.726;2023-02-14T14:43:37;10.73;;;7.37;;
9536;SDS011;4807;48.024;11.726;2023-02-14T14:46:48;10.07;;;7.37;;
9536;SDS011;4807;48.024;11.726;2023-02-14T14:49:58;10.43;;;7.70;;
9536;SDS011;4807;48.024;11.726;2023-02-14T14:53:18;10.10;;;7.23;;
9536;SDS011;4807;48.024;11.726;2023-02-14T14:56:31;11.77;;;8.00;;
9536;SDS011;4807;48.024;11.726;2023-02-14T14:59:43;8.70;;;6.63;;
9536;SDS011;4807;48.024;11.726;2023-02-14T15:02:57;11.23;;;7.53;;
9536;SDS011;4807;48.024;11.726;2023-02-14T15:06:14;11.90;;;8.23;;
9536;SDS011;4807;48.024;11.726;2023-02-14T15:09:29;11.93;;;8.70;;
9536;SDS011;4807;48.024;11.726;2023-02-14T15:12:38;12.37;;;9.67;;
9536;SDS011;4807;48.024;11.726;2023-02-14T15:16:16;12.50;;;9.67;;
9536;SDS011;4807;48.024;11.726;2023-02-14T15:19:30;10.60;;;8.43;;
9536;SDS011;4807;48.024;11.726;2023-02-14T15:22:43;15.70;;;9.03;;
9536;SDS011;4807;48.024;11.726;2023-02-14T15:25:54;11.40;;;8.70;;
9536;SDS011;4807;48.024;11.726;2023-02-14T15:29:03;10.10;;;8.70;;
9536;SDS011;4807;48.024;11.726;2023-02-14T15:32:13;14.00;;;9.07;;
9536;SDS011;4807;48.024;11.726;2023-02-14T15:35:24;13.43;;;10.03;;
9536;SDS011;4807;48.024;11.726;2023-02-14T15:38:35;11.97;;;8.80;;
9536;SDS011;4807;48.024;11.726;2023-02-14T15:41:50;12.40;;;9.30;;
9536;SDS011;4807;48.024;11.726;2023-02-14T15:45:13;15.83;;;10.70;;
9536;SDS011;4807;48.024;11.726;2023-02-14T15:48:29;12.97;;;9.30;;
9536;SDS011;4807;48.024;11.726;2023-02-14T15:51:41;13.67;;;9.90;;
9536;SDS011;4807;48.024;11.726;2023-02-14T15:54:50;13.43;;;9.97;;
9536;SDS011;4807;48.024;11.726;2023-02-14T15:57:58;15.13;;;10.23;;
9536;SDS011;4807;48.024;11.726;2023-02-14T16:01:10;18.67;;;10.83;;
9536;SDS011;4807;48.024;11.726;2023-02-14T16:04:22;16.90;;;10.63;;
9536;SDS011;4807;48.024;11.726;2023-02-14T16:07:35;15.40;;;10.53;;
9536;SDS011;4807;48.024;11.726;2023-02-14T16:10:44;15.43;;;10.90;;
9536;SDS011;4807;48.024;11.726;2023-02-14T16:17:41;16.20;;;11.17;;
9536;SDS011;4807;48.024;11.726;2023-02-14T16:20:50;17.33;;;10.97;;
9536;SDS011;4807;48.024;11.726;2023-02-14T16:24:10;18.87;;;11.20;;
9536;SDS011;4807;48.024;11.726;2023-02-14T16:27:21;19.27;;;11.23;;
9536;SDS011;4807;48.024;11.726;2023-02-14T16:30:30;18.57;;;11.50;;
9536;SDS011;4807;48.024;11.726;2023-02-14T16:33:39;15.93;;;11.40;;
9536;SDS011;4807;48.024;11.726;2023-02-14T16:36:48;15.63;;;10.73;;
9536;SDS011;4807;48.024;11.726;2023-02-14T16:39:58;17.27;;;11.27;;
9536;SDS011;4807;48.024;11.726;2023-02-14T16:43:10;19.50;;;10.97;;
9536;SDS011;4807;48.024;11.726;2023-02-14T16:46:22;19.77;;;12.40;;
9536;SDS011;4807;48.024;11.726;2023-02-14T16:49:34;15.67;;;10.90;;
9536;SDS011;4807;48.024;11.726;2023-02-14T16:52:43;20.00;;;11.80;;
9536;SDS011;4807;48.024;11.726;2023-02-14T16:55:59;18.53;;;11.73;;
9536;SDS011;4807;48.024;11.726;2023-02-14T16:59:07;23.30;;;11.83;;
9536;SDS011;4807;48.024;11.726;2023-02-14T17:02:17;20.03;;;12.37;;
9536;SDS011;4807;48.024;11.726;2023-02-14T17:05:26;22.07;;;12.37;;
9536;SDS011;4807;48.024;11.726;2023-02-14T17:08:35;22.43;;;12.67;;
9536;SDS011;4807;48.024;11.726;2023-02-14T17:11:49;17.63;;;11.37;;
9536;SDS011;4807;48.024;11.726;2023-02-14T17:15:01;21.00;;;11.50;;
9536;SDS011;4807;48.024;11.726;2023-02-14T17:18:14;25.03;;;12.70;;
9536;SDS011;4807;48.024;11.726;2023-02-14T17:21:25;19.53;;;12.17;;
9536;SDS011;4807;48.024;11.726;2023-02-14T17:24:34;15.90;;;10.10;;
9536;SDS011;4807;48.024;11.726;2023-02-14T17:27:44;21.30;;;12.90;;
9536;SDS011;4807;48.024;11.726;2023-02-14T17:30:52;21.90;;;12.47;;
9536;SDS011;4807;48.024;11.726;2023-02-14T17:34:00;21.50;;;12.57;;
9536;SDS011;4807;48.024;11.726;2023-02-14T17:37:09;22.47;;;13.13;;
9536;SDS011;4807;48.024;11.726;2023-02-14T17:40:17;19.33;;;11.63;;
9536;SDS011;4807;48.024;11.726;2023-02-14T17:43:27;19.10;;;11.90;;
9536;SDS011;4807;48.024;11.726;2023-02-14T17:46:35;19.23;;;12.53;;
9536;SDS011;4807;48.024;11.726;2023-02-14T17:49:44;23.17;;;13.00;;
9536;SDS011;4807;48.024;11.726;2023-02-14T17:52:53;27.37;;;15.07;;
9536;SDS011;4807;48.024;11.726;2023-02-14T17:56:03;20.83;;;12.50;;
9536;SDS011;4807;48.024;11.726;2023-02-14T17:59:15;25.17;;;13.63;;
9536;SDS011;4807;48.024;11.726;2023-02-14T18:02:23;22.23;;;12.00;;
9536;SDS011;4807;48.024;11.726;2023-02-14T18:05:34;18.83;;;12.63;;
9536;SDS011;4807;48.024;11.726;2023-02-14T18:08:43;62.17;;;13.47;;
9536;SDS011;4807;48.024;11.726;2023-02-14T18:11:54;61.27;;;12.27;;
9536;SDS011;4807;48.024;11.726;2023-02-14T18:15:04;102.50;;;13.27;;
9536;SDS011;4807;48.024;11.726;2023-02-14T18:18:13;20.93;;;12.40;;
9536;SDS011;4807;48.024;11.726;2023-02-14T18:21:22;26.27;;;12.27;;
9536;SDS011;4807;48.024;11.726;2023-02-14T18:24:30;16.93;;;11.53;;
9536;SDS011;4807;48.024;11.726;2023-02-14T18:27:39;22.50;;;11.73;;
9536;SDS011;4807;48.024;11.726;2023-02-14T18:30:48;22.80;;;12.27;;
9536;SDS011;4807;48.024;11.726;2023-02-14T18:33:57;19.17;;;12.20;;
9536;SDS011;4807;48.024;11.726;2023-02-14T18:37:07;30.50;;;12.27;;
9536;SDS011;4807;48.024;11.726;2023-02-14T18:40:18;28.00;;;12.53;;
9536;SDS011;4807;48.024;11.726;2023-02-14T18:43:26;17.10;;;11.77;;
9536;SDS011;4807;48.024;11.726;2023-02-14T18:46:36;28.87;;;11.63;;
9536;SDS011;4807;48.024;11.726;2023-02-14T18:49:44;29.13;;;11.40;;
9536;SDS011;4807;48.024;11.726;2023-02-14T18:52:53;16.03;;;9.80;;
9536;SDS011;4807;48.024;11.726;2023-02-14T18:56:02;23.97;;;10.07;;
9536;SDS011;4807;48.024;11.726;2023-02-14T18:59:11;17.87;;;9.83;;
9536;SDS011;4807;48.024;11.726;2023-02-14T19:02:21;16.97;;;10.83;;
9536;SDS011;4807;48.024;11.726;2023-02-14T19:05:29;21.00;;;10.17;;
9536;SDS011;4807;48.024;11.726;2023-02-14T19:08:38;16.40;;;10.73;;
9536;SDS011;4807;48.024;11.726;2023-02-14T19:11:50;57.17;;;10.57;;
9536;SDS011;4807;48.024;11.726;2023-02-14T19:15:08;27.10;;;10.13;;
9536;SDS011;4807;48.024;11.726;2023-02-14T19:18:18;14.17;;;9.60;;
9536;SDS011;4807;48.024;11.726;2023-02-14T19:21:28;21.13;;;11.93;;
9536;SDS011;4807;48.024;11.726;2023-02-14T19:24:50;17.90;;;11.73;;
9536;SDS011;4807;48.024;11.726;2023-02-14T19:27:59;39.73;;;13.80;;
9536;SDS011;4807;48.024;11.726;2023-02-14T19:31:07;28.10;;;11.83;;
9536;SDS011;4807;48.024;11.726;2023-02-14T19:34:18;35.53;;;12.30;;
9536;SDS011;4807;48.024;11.726;2023-02-14T19:37:29;17.57;;;11.37;;